Time;durP1;ratioP1;P1;durP2;ratioP2;P2;SDS_P1;SDS_P2;PMS_P1;PMS_P2;Temp;Humidity;BMP_temperature;BMP_pressure;BME280_temperature;BME280_humidity;BME280_pressure;Samples;Min_cycle;Max_cycle;Signal;HPM_P1;HPM_P2
2021/09/17 00:01:00;;;;;;;14.40;6.67;;;;;;;21.95;53.06;101154.88;6152324;23;20150;-63
2021/09/17 00:03:25;;;;;;;9.97;6.53;;;;;;;22.15;53.34;101182.28;6151013;23;20612;-63
2021/09/17 00:05:52;;;;;;;10.87;6.90;;;;;;;22.20;53.24;101181.53;6152041;23;20500;-63
2021/09/17 00:08:17;;;;;;;10.40;6.17;;;;;;;22.25;52.60;101186.47;6151771;23;20684;-63
2021/09/17 00:10:43;;;;;;;9.33;6.33;;;;;;;22.21;52.58;101177.47;6151515;23;20211;-63
2021/09/17 00:13:09;;;;;;;11.30;7.30;;;;;;;21.92;53.07;101124.06;6151313;23;20177;-63
2021/09/17 00:15:34;;;;;;;11.40;6.90;;;;;;;22.32;52.96;101180.38;6151522;23;20258;-63
2021/09/17 00:18:00;;;;;;;12.97;7.47;;;;;;;22.32;53.35;101175.50;6151902;23;20153;-63
2021/09/17 00:20:25;;;;;;;11.73;7.47;;;;;;;22.31;53.38;101173.94;6151103;23;20150;-63
2021/09/17 00:22:51;;;;;;;10.17;6.27;;;;;;;22.20;53.39;101162.56;6150234;23;20224;-63
2021/09/17 00:25:16;;;;;;;10.57;6.17;;;;;;;22.22;53.46;101162.06;6151651;23;20600;-63
2021/09/17 00:27:42;;;;;;;9.57;6.00;;;;;;;22.27;53.41;101164.16;6151592;23;20283;-63
2021/09/17 00:30:08;;;;;;;10.83;6.20;;;;;;;22.22;53.52;101153.59;6150871;23;20195;-63
2021/09/17 00:32:34;;;;;;;11.90;6.40;;;;;;;22.16;53.92;101158.44;6151609;23;20552;-62
2021/09/17 00:34:59;;;;;;;11.80;6.60;;;;;;;22.20;54.02;101159.75;6152146;23;20182;-63
2021/09/17 00:37:25;;;;;;;10.37;6.00;;;;;;;21.99;53.91;101123.59;6151535;23;20176;-62
2021/09/17 00:39:50;;;;;;;10.37;6.33;;;;;;;22.05;54.76;101150.63;6150959;23;20150;-63
2021/09/17 00:42:16;;;;;;;10.93;6.17;;;;;;;21.98;54.87;101150.28;6151851;23;20156;-63
2021/09/17 00:44:41;;;;;;;9.00;6.50;;;;;;;22.00;55.17;101150.59;6152394;23;20154;-63
2021/09/17 00:47:07;;;;;;;13.90;6.80;;;;;;;22.05;55.43;101147.78;6154015;23;20150;-63
2021/09/17 00:49:32;;;;;;;15.63;7.77;;;;;;;22.00;56.79;101144.94;6152613;23;20182;-62
2021/09/17 00:51:58;;;;;;;9.43;6.63;;;;;;;21.83;57.42;101110.13;6153513;23;20161;-63
2021/09/17 00:54:25;;;;;;;13.00;7.03;;;;;;;22.08;57.08;101143.19;6153970;23;20152;-62
2021/09/17 00:56:51;;;;;;;14.47;7.17;;;;;;;22.02;57.49;101136.72;6153740;23;20160;-62
2021/09/17 00:59:17;;;;;;;10.50;7.83;;;;;;;22.02;58.46;101134.69;6153445;23;20199;-63
2021/09/17 01:01:43;;;;;;;12.93;7.33;;;;;;;21.90;59.16;101116.09;6153051;23;20636;-63
2021/09/17 01:04:09;;;;;;;11.53;7.33;;;;;;;21.90;59.05;101096.34;6153822;23;20157;-62
2021/09/17 01:06:36;;;;;;;15.07;7.67;;;;;;;22.17;59.12;101135.34;6153436;23;20149;-63
2021/09/17 01:09:03;;;;;;;11.90;7.23;;;;;;;22.18;58.90;101122.78;6153146;23;20320;-65
2021/09/17 01:11:29;;;;;;;8.67;7.30;;;;;;;22.29;59.07;101130.56;6152473;23;20881;-63
2021/09/17 01:13:54;;;;;;;11.97;7.10;;;;;;;22.28;59.29;101120.53;6153318;23;20232;-63
2021/09/17 01:16:20;;;;;;;13.47;7.80;;;;;;;22.33;59.62;101122.63;6153371;23;20161;-63
2021/09/17 01:18:45;;;;;;;12.17;8.10;;;;;;;22.18;60.18;101100.19;6153121;23;20154;-63
2021/09/17 01:21:11;;;;;;;9.57;7.73;;;;;;;22.38;59.60;101117.03;6152443;23;20234;-63
2021/09/17 01:23:36;;;;;;;12.33;7.53;;;;;;;22.28;58.67;101093.09;6153892;23;20157;-63
2021/09/17 01:26:02;;;;;;;11.27;7.40;;;;;;;22.36;58.66;101099.81;6153398;23;20605;-63
2021/09/17 01:28:30;;;;;;;12.70;7.63;;;;;;;22.51;58.91;101111.00;6152401;23;20202;-63
2021/09/17 01:30:56;;;;;;;11.30;7.30;;;;;;;22.26;59.56;101075.09;6153299;23;20153;-63
2021/09/17 01:33:24;;;;;;;11.87;7.37;;;;;;;22.29;59.86;101082.56;6153133;23;20181;-63
2021/09/17 01:36:04;;;;;;;11.90;7.60;;;;;;;22.51;59.62;101114.59;6153467;23;20154;-63
2021/09/17 01:38:32;;;;;;;15.70;8.03;;;;;;;22.52;59.83;101115.38;6152613;23;20225;-63
2021/09/17 01:40:59;;;;;;;10.93;7.80;;;;;;;22.53;59.71;101114.88;6153300;23;20158;-62
2021/09/17 01:43:25;;;;;;;11.47;7.83;;;;;;;22.28;59.82;101073.34;6152811;23;20157;-63
2021/09/17 01:45:51;;;;;;;15.37;7.90;;;;;;;22.32;60.39;101090.03;6153322;23;20156;-63
2021/09/17 01:48:16;;;;;;;12.47;7.87;;;;;;;22.30;60.78;101093.34;6153084;23;20178;-63
2021/09/17 01:50:42;;;;;;;10.93;7.63;;;;;;;22.46;60.82;101114.56;6152876;23;20229;-63
2021/09/17 01:53:08;;;;;;;9.63;7.93;;;;;;;22.46;60.93;101117.38;6150938;23;20189;-63
2021/09/17 01:55:34;;;;;;;10.70;7.77;;;;;;;22.38;61.31;101111.41;6152765;23;20157;-65
2021/09/17 01:57:59;;;;;;;10.67;7.80;;;;;;;22.19;61.98;101109.41;6153667;23;20205;-62
2021/09/17 02:00:25;;;;;;;8.23;7.30;;;;;;;22.06;62.49;101092.88;6152802;23;20153;-65
2021/09/17 02:02:50;;;;;;;15.00;8.20;;;;;;;22.09;62.90;101106.00;6152508;23;20150;-65
2021/09/17 02:05:17;;;;;;;15.57;8.30;;;;;;;22.11;62.83;101100.63;6153172;23;20149;-65
2021/09/17 02:07:43;;;;;;;14.70;8.60;;;;;;;22.20;62.24;101099.66;6126987;23;20168;-62
2021/09/17 02:10:09;;;;;;;14.60;8.30;;;;;;;22.20;62.08;101083.53;6152364;23;20668;-62
2021/09/17 02:12:35;;;;;;;11.83;7.70;;;;;;;22.32;61.91;101104.91;6152010;23;20233;-65
2021/09/17 02:15:01;;;;;;;10.37;7.77;;;;;;;22.35;61.57;101098.28;6153147;23;20185;-63
2021/09/17 02:17:26;;;;;;;10.30;7.83;;;;;;;22.35;61.29;101091.84;6152561;23;20154;-62
2021/09/17 02:19:52;;;;;;;11.13;7.47;;;;;;;22.19;61.21;101055.78;6152792;23;20400;-65
2021/09/17 02:22:18;;;;;;;10.97;7.30;;;;;;;22.32;61.04;101073.09;6152668;23;20149;-65
2021/09/17 02:24:44;;;;;;;13.07;7.20;;;;;;;22.52;59.89;101106.91;6152403;23;20647;-65
2021/09/17 02:27:10;;;;;;;9.20;7.33;;;;;;;22.50;59.19;101101.75;6152663;23;20228;-65
2021/09/17 02:29:35;;;;;;;9.13;6.80;;;;;;;22.39;60.09;101087.53;6152452;23;20186;-62
2021/09/17 02:32:01;;;;;;;12.37;7.40;;;;;;;22.28;60.89;101083.84;6152511;23;20207;-62
2021/09/17 02:34:26;;;;;;;10.37;7.53;;;;;;;22.42;60.55;101097.03;6152286;23;20154;-62
2021/09/17 02:36:52;;;;;;;10.07;7.63;;;;;;;22.44;60.56;101089.66;6153172;23;20173;-65
2021/09/17 02:39:18;;;;;;;13.60;7.40;;;;;;;22.34;60.69;101068.50;6151800;23;20503;-62
2021/09/17 02:41:43;;;;;;;12.77;7.20;;;;;;;22.45;60.46;101076.28;6152874;23;20154;-62
2021/09/17 02:44:10;;;;;;;9.60;6.97;;;;;;;22.33;59.11;101066.16;6152416;23;20150;-65
2021/09/17 02:46:35;;;;;;;11.20;6.77;;;;;;;22.21;59.44;101054.00;6152911;23;20208;-65
2021/09/17 02:49:01;;;;;;;12.53;7.43;;;;;;;22.33;59.97;101072.59;6151968;23;20181;-65
2021/09/17 02:51:27;;;;;;;10.07;6.97;;;;;;;22.39;59.62;101083.91;6152148;23;20631;-65
2021/09/17 02:53:52;;;;;;;15.67;7.23;;;;;;;22.46;59.91;101094.78;6152183;23;20516;-62
2021/09/17 02:56:18;;;;;;;15.67;7.37;;;;;;;22.50;59.91;101098.13;6152609;23;20248;-64
2021/09/17 02:58:43;;;;;;;8.47;6.80;;;;;;;22.39;59.92;101084.69;6151987;23;20154;-62
2021/09/17 03:01:08;;;;;;;11.17;6.50;;;;;;;22.50;58.88;101093.28;6150827;23;20253;-62
2021/09/17 03:03:34;;;;;;;8.20;5.03;;;;;;;22.46;51.08;101087.06;6152514;23;20158;-62
2021/09/17 03:05:59;;;;;;;11.47;6.23;;;;;;;22.49;55.92;101086.09;6152370;23;20635;-64
2021/09/17 03:08:25;;;;;;;8.33;5.27;;;;;;;22.25;53.37;101057.38;6151663;23;20178;-65
2021/09/17 03:10:56;;;;;;;12.90;5.83;;;;;;;22.16;54.06;101059.63;6152986;23;20620;-65
2021/09/17 03:13:21;;;;;;;11.67;6.87;;;;;;;22.39;56.60;101075.44;6152113;23;20588;-64
2021/09/17 03:15:47;;;;;;;12.00;6.67;;;;;;;22.44;57.60;101067.06;6151713;23;20229;-63
2021/09/17 03:18:12;;;;;;;10.00;6.40;;;;;;;22.42;57.39;101063.91;6152722;23;20539;-65
2021/09/17 03:20:38;;;;;;;11.50;6.30;;;;;;;22.48;57.20;101070.41;6151638;23;20224;-65
2021/09/17 03:23:03;;;;;;;12.97;6.67;;;;;;;22.52;57.21;101073.00;6152226;23;20149;-65
2021/09/17 03:25:29;;;;;;;13.30;6.73;;;;;;;22.57;56.85;101075.09;6151811;23;20153;-65
2021/09/17 03:27:54;;;;;;;11.07;5.80;;;;;;;22.52;56.74;101061.72;6151925;23;20201;-65
2021/09/17 03:30:20;;;;;;;12.57;6.40;;;;;;;22.18;56.63;101004.22;6152271;23;20154;-65
2021/09/17 03:32:45;;;;;;;9.07;6.63;;;;;;;22.62;56.74;101063.06;6151991;23;20503;-65
2021/09/17 03:35:11;;;;;;;10.57;6.27;;;;;;;22.64;56.14;101064.09;6151630;23;20154;-62
2021/09/17 03:37:36;;;;;;;8.23;6.00;;;;;;;22.63;56.35;101061.78;6152072;23;20594;-62
2021/09/17 03:40:03;;;;;;;13.67;6.70;;;;;;;22.41;56.76;101036.94;6151752;23;20467;-65
2021/09/17 03:42:29;;;;;;;11.60;6.80;;;;;;;22.47;56.34;101043.44;6151952;23;20229;-65
2021/09/17 03:44:55;;;;;;;11.73;7.00;;;;;;;22.50;56.85;101058.59;6152348;23;20543;-64
2021/09/17 03:47:20;;;;;;;12.47;6.43;;;;;;;22.40;57.84;101057.22;6151765;23;20184;-69
2021/09/17 03:49:46;;;;;;;6.83;4.87;;;;;;;22.75;51.35;101058.50;6143944;23;20173;-71
2021/09/17 03:52:11;;;;;;;8.23;5.70;;;;;;;22.84;53.13;101063.94;6151531;23;20213;-72
2021/09/17 03:54:37;;;;;;;7.17;5.27;;;;;;;22.54;53.93;101017.56;6151362;23;20508;-68
2021/09/17 03:57:02;;;;;;;9.40;5.40;;;;;;;22.87;53.59;101048.03;6151237;23;20168;-67
2021/09/17 03:59:28;;;;;;;5.80;5.20;;;;;;;23.02;53.95;101065.56;6150981;23;20150;-67
2021/09/17 04:01:53;;;;;;;7.97;5.47;;;;;;;23.00;54.83;101060.44;6150051;23;20150;-66
2021/09/17 04:04:19;;;;;;;9.27;6.23;;;;;;;23.06;56.69;101058.38;6151775;23;20150;-67
2021/09/17 04:06:45;;;;;;;7.00;5.17;;;;;;;23.04;54.60;101054.53;6151860;23;20245;-69
2021/09/17 04:09:11;;;;;;;7.00;5.43;;;;;;;23.10;53.91;101049.66;6150667;23;20169;-68
2021/09/17 04:11:37;;;;;;;6.23;5.63;;;;;;;23.25;54.01;101047.44;6124743;23;20157;-68
2021/09/17 04:14:03;;;;;;;5.73;5.13;;;;;;;23.26;53.71;101043.31;6151957;23;20601;-69
2021/09/17 04:16:28;;;;;;;9.23;5.60;;;;;;;23.31;55.33;101057.47;6151591;23;20149;-66
2021/09/17 04:18:54;;;;;;;6.60;5.80;;;;;;;23.34;53.71;101056.44;6144994;23;20232;-68
2021/09/17 04:21:19;;;;;;;7.53;5.60;;;;;;;23.10;54.06;101007.25;6150373;23;20164;-68
2021/09/17 04:23:45;;;;;;;6.63;5.30;;;;;;;23.34;53.68;101039.47;6153639;23;20289;-67
2021/09/17 04:26:10;;;;;;;6.73;5.73;;;;;;;23.62;52.99;101039.53;6153005;23;20149;-69
2021/09/17 04:28:36;;;;;;;6.00;5.40;;;;;;;23.79;52.76;101046.00;6152631;23;20618;-73
2021/09/17 04:31:01;;;;;;;10.47;6.10;;;;;;;23.89;52.72;101042.41;6153210;23;20150;-71
2021/09/17 04:33:27;;;;;;;8.63;6.03;;;;;;;23.94;52.85;101035.22;6153099;23;20505;-70
2021/09/17 04:35:53;;;;;;;9.83;7.23;;;;;;;23.79;54.40;101009.97;6153034;23;20157;-66
2021/09/17 04:38:18;;;;;;;16.90;7.13;;;;;;;23.85;55.63;101041.13;6152288;23;20150;-66
2021/09/17 04:40:44;;;;;;;9.30;7.00;;;;;;;23.77;56.20;101032.34;6146982;23;20153;-66
2021/09/17 04:43:10;;;;;;;10.87;7.67;;;;;;;23.51;56.64;101014.06;6146889;23;20149;-66
2021/09/17 04:45:36;;;;;;;14.00;7.53;;;;;;;23.59;55.82;101032.84;6148691;23;20166;-66
2021/09/17 04:48:10;;;;;;;11.00;6.97;;;;;;;23.43;54.39;101005.31;6129028;23;20592;-66
2021/09/17 04:50:35;;;;;;;18.07;8.93;;;;;;;23.33;55.19;100991.94;6102081;23;20161;-66
2021/09/17 04:53:01;;;;;;;17.57;12.30;;;;;;;23.49;54.63;101014.56;6136978;23;20172;-65
2021/09/17 04:55:26;;;;;;;13.90;9.07;;;;;;;23.43;55.28;101008.13;6138117;23;20427;-65
2021/09/17 04:57:52;;;;;;;19.40;9.67;;;;;;;23.40;55.43;101016.88;6140674;23;20158;-66
2021/09/17 05:00:17;;;;;;;22.27;11.47;;;;;;;23.36;54.98;101017.13;6142956;23;20154;-65
2021/09/17 05:02:43;;;;;;;18.20;9.27;;;;;;;23.13;54.55;101020.38;6146895;23;20232;-64
2021/09/17 05:05:08;;;;;;;17.80;9.17;;;;;;;22.85;55.20;101016.66;6149023;23;20583;-64
2021/09/17 05:07:34;;;;;;;14.43;9.97;;;;;;;22.97;55.11;101023.94;6147584;23;20799;-65
2021/09/17 05:09:59;;;;;;;19.37;10.37;;;;;;;22.96;54.83;101037.28;6149106;23;20185;-64
2021/09/17 05:12:25;;;;;;;14.77;8.93;;;;;;;22.75;55.13;100999.16;6144868;23;20181;-65
2021/09/17 05:14:51;;;;;;;24.93;13.33;;;;;;;22.88;55.26;101024.16;6150812;23;20185;-64
2021/09/17 05:17:16;;;;;;;17.07;9.20;;;;;;;22.94;55.83;101031.38;6150071;23;20154;-64
2021/09/17 05:19:42;;;;;;;22.23;9.57;;;;;;;22.92;55.30;101039.56;6150902;23;20158;-64
2021/09/17 05:22:07;;;;;;;25.03;10.20;;;;;;;22.56;56.96;101037.59;6150428;23;20160;-64
2021/09/17 05:24:33;;;;;;;22.13;9.83;;;;;;;22.45;56.29;101048.03;6149821;23;20157;-64
2021/09/17 05:26:58;;;;;;;26.33;10.37;;;;;;;22.58;54.81;101037.88;6149603;23;20198;-65
2021/09/17 05:29:24;;;;;;;21.13;10.87;;;;;;;22.47;55.48;101023.66;6149399;23;20202;-64
2021/09/17 05:31:49;;;;;;;17.97;9.73;;;;;;;22.48;55.71;101005.47;6150712;23;20273;-65
2021/09/17 05:34:15;;;;;;;25.87;10.30;;;;;;;22.52;55.74;101020.09;6150438;23;20161;-64
2021/09/17 05:36:41;;;;;;;24.90;11.03;;;;;;;22.72;55.78;101042.56;6150862;23;20153;-65
2021/09/17 05:39:07;;;;;;;24.07;10.67;;;;;;;22.47;56.66;101020.09;6150554;23;20146;-64
2021/09/17 05:41:33;;;;;;;21.20;11.30;;;;;;;22.56;56.44;101017.81;6150222;23;20157;-64
2021/09/17 05:43:59;;;;;;;30.87;10.93;;;;;;;22.69;55.70;101023.03;6150652;23;20154;-64
2021/09/17 05:46:24;;;;;;;22.43;10.50;;;;;;;22.91;55.28;101038.03;6149415;23;20150;-64
2021/09/17 05:48:50;;;;;;;28.47;11.30;;;;;;;22.76;54.79;101009.19;6149023;23;20185;-65
2021/09/17 05:51:15;;;;;;;22.10;10.80;;;;;;;22.85;53.75;101013.84;6148694;23;20177;-65
2021/09/17 05:53:41;;;;;;;29.80;16.33;;;;;;;23.06;53.95;101018.03;6149521;23;20561;-65
2021/09/17 05:56:06;;;;;;;26.27;13.53;;;;;;;23.09;54.56;101028.34;6149760;23;20208;-64
2021/09/17 05:58:34;;;;;;;28.73;13.40;;;;;;;23.11;53.41;101008.78;6148399;23;20157;-64
2021/09/17 06:01:00;;;;;;;27.13;10.90;;;;;;;23.14;52.45;101017.03;6145518;23;20154;-65
2021/09/17 06:03:25;;;;;;;22.63;11.27;;;;;;;23.29;52.71;101031.75;6148055;23;20157;-64
2021/09/17 06:05:51;;;;;;;27.87;11.33;;;;;;;22.99;53.40;100971.25;6149411;23;20160;-64
2021/09/17 06:08:17;;;;;;;29.47;11.00;;;;;;;23.39;52.83;101018.91;6149746;23;20150;-65
2021/09/17 06:10:42;;;;;;;28.00;10.20;;;;;;;23.60;52.76;101017.41;6150374;23;20236;-64
2021/09/17 06:13:08;;;;;;;16.50;9.23;;;;;;;23.40;52.36;100995.03;6149802;23;20216;-64
2021/09/17 06:15:33;;;;;;;19.87;9.43;;;;;;;23.71;52.44;101011.00;6150180;23;20181;-64
2021/09/17 06:17:59;;;;;;;18.73;9.00;;;;;;;23.95;51.81;101003.56;6149607;23;20481;-65
2021/09/17 06:20:25;;;;;;;14.40;7.03;;;;;;;23.99;48.28;101009.75;6149371;23;20488;-65
2021/09/17 06:22:53;;;;;;;13.57;6.93;;;;;;;24.02;48.88;100982.44;6149986;23;20675;-64
2021/09/17 06:25:20;;;;;;;16.20;8.00;;;;;;;24.27;49.02;101016.16;6136303;23;20232;-64
2021/09/17 06:27:46;;;;;;;26.03;7.97;;;;;;;24.16;49.34;101009.72;6148534;23;20197;-64
2021/09/17 06:30:13;;;;;;;21.80;7.80;;;;;;;24.30;49.44;101022.84;6143488;23;20651;-63
2021/09/17 06:32:38;;;;;;;18.83;7.73;;;;;;;24.53;49.19;101018.66;6147141;23;20414;-64
2021/09/17 06:35:05;;;;;;;17.60;7.30;;;;;;;24.59;48.43;101016.59;6146273;23;20308;-64
2021/09/17 06:37:31;;;;;;;21.97;11.53;;;;;;;24.69;48.17;101024.31;6136521;23;20188;-64
2021/09/17 06:39:56;;;;;;;18.97;8.60;;;;;;;24.90;47.87;101019.84;6143236;23;20225;-64
2021/09/17 06:42:21;;;;;;;16.33;7.03;;;;;;;24.92;45.79;101019.34;6146483;23;20263;-64
2021/09/17 06:44:47;;;;;;;17.97;7.10;;;;;;;25.08;45.90;100998.63;6145332;23;20260;-64
2021/09/17 06:47:12;;;;;;;15.90;7.70;;;;;;;25.44;45.59;101015.19;6143912;23;20604;-64
2021/09/17 06:49:38;;;;;;;14.33;7.87;;;;;;;25.66;45.78;101009.38;6133418;23;20528;-64
2021/09/17 06:52:04;;;;;;;17.23;9.53;;;;;;;25.72;45.73;100990.22;6142134;23;20265;-65
2021/09/17 06:54:29;;;;;;;12.17;7.20;;;;;;;25.74;46.18;101001.81;6117158;23;20439;-63
2021/09/17 06:56:55;;;;;;;14.03;8.53;;;;;;;25.92;46.07;101000.41;6146136;23;20162;-63
2021/09/17 06:59:21;;;;;;;13.50;7.40;;;;;;;25.92;47.51;100997.56;6145364;23;20172;-65
2021/09/17 07:01:47;;;;;;;14.43;7.60;;;;;;;26.00;47.74;100990.78;6114161;23;20166;-63
2021/09/17 07:04:12;;;;;;;11.93;7.77;;;;;;;25.88;47.48;100995.00;6148515;23;20628;-63
2021/09/17 07:06:38;;;;;;;17.37;8.30;;;;;;;26.06;47.33;100982.22;6150369;23;20212;-63
2021/09/17 07:09:04;;;;;;;18.63;8.17;;;;;;;26.31;46.67;100986.59;6142011;23;20186;-63
2021/09/17 07:11:30;;;;;;;30.77;11.33;;;;;;;26.17;47.05;100940.28;6147153;23;20172;-64
2021/09/17 07:13:55;;;;;;;18.77;9.00;;;;;;;26.63;46.83;100984.72;6146015;23;20157;-63
2021/09/17 07:16:21;;;;;;;17.60;9.27;;;;;;;26.83;46.32;100989.91;6144437;23;20209;-64
2021/09/17 07:18:47;;;;;;;17.63;8.13;;;;;;;26.77;46.30;100978.59;6148961;23;20517;-64
2021/09/17 07:21:13;;;;;;;18.80;9.23;;;;;;;27.03;46.70;100983.69;6147316;23;20216;-64
2021/09/17 07:23:39;;;;;;;23.83;8.50;;;;;;;27.18;45.54;100989.72;6148025;23;20157;-64
2021/09/17 07:26:04;;;;;;;20.40;8.30;;;;;;;27.37;45.61;100981.91;6148884;23;20180;-64
2021/09/17 07:28:32;;;;;;;21.58;8.65;;;;;;;27.50;45.47;100982.00;6141611;23;20749;-64
2021/09/17 07:30:59;;;;;;;17.60;8.80;;;;;;;27.62;45.21;100983.34;6148786;23;20170;-64
2021/09/17 07:33:25;;;;;;;19.80;7.88;;;;;;;27.75;44.41;100978.44;6149243;23;20638;-63
2021/09/17 07:35:50;;;;;;;20.17;8.40;;;;;;;27.67;43.64;100940.56;6146967;23;20162;-63
2021/09/17 07:38:16;;;;;;;16.73;7.70;;;;;;;27.88;42.84;100952.13;6146921;23;20153;-64
2021/09/17 07:40:41;;;;;;;20.60;8.05;;;;;;;28.05;42.53;100964.75;6149134;23;20150;-64
2021/09/17 07:43:07;;;;;;;17.48;7.93;;;;;;;28.18;41.78;100959.06;6149128;23;20161;-64
2021/09/17 07:45:33;;;;;;;21.90;9.52;;;;;;;28.32;41.59;100962.69;6147187;23;20165;-64
2021/09/17 07:48:00;;;;;;;19.55;8.85;;;;;;;28.49;41.37;100966.78;6147803;23;20596;-64
2021/09/17 07:50:27;;;;;;;23.33;9.40;;;;;;;28.63;39.92;100967.56;6143306;23;20288;-64
2021/09/17 07:52:52;;;;;;;20.85;9.23;;;;;;;28.74;40.67;100973.00;6138701;23;20633;-64
2021/09/17 07:55:18;;;;;;;18.33;8.48;;;;;;;28.88;39.48;100965.97;6149052;23;20217;-65
2021/09/17 07:57:44;;;;;;;22.08;7.95;;;;;;;28.76;38.41;100922.66;6146148;23;20158;-64
2021/09/17 08:00:13;;;;;;;18.75;8.07;;;;;;;28.98;36.27;100952.81;6146599;23;20156;-64
2021/09/17 08:02:40;;;;;;;23.27;7.93;;;;;;;29.02;36.01;100950.41;6150034;23;20153;-64
2021/09/17 08:05:06;;;;;;;20.95;8.13;;;;;;;29.25;35.67;100974.25;6123586;23;20228;-64
2021/09/17 08:07:32;;;;;;;26.02;8.75;;;;;;;29.40;36.27;100969.47;6150118;23;20169;-64
2021/09/17 08:09:57;;;;;;;22.85;8.75;;;;;;;29.39;35.83;100913.72;6150528;23;20324;-64
2021/09/17 08:12:23;;;;;;;32.47;8.90;;;;;;;29.74;35.51;100920.91;6153569;23;20158;-64
2021/09/17 08:14:48;;;;;;;23.00;8.27;;;;;;;30.16;35.49;100942.41;6149044;23;20153;-64
2021/09/17 08:17:14;;;;;;;19.92;8.55;;;;;;;30.28;36.40;100938.66;6147032;23;20166;-64
2021/09/17 08:19:39;;;;;;;22.77;8.68;;;;;;;30.41;36.97;100932.06;6147921;23;20157;-64
2021/09/17 08:22:05;;;;;;;18.05;8.32;;;;;;;30.05;36.76;100879.78;6146999;23;20154;-64
2021/09/17 08:24:31;;;;;;;20.33;8.40;;;;;;;30.19;36.80;100909.84;6147178;23;20512;-64
2021/09/17 08:26:57;;;;;;;24.70;8.65;;;;;;;30.16;36.36;100910.94;6147120;23;20304;-64
2021/09/17 08:29:23;;;;;;;19.48;7.75;;;;;;;30.17;37.09;100898.97;6147330;23;20648;-64
2021/09/17 08:31:49;;;;;;;18.83;8.30;;;;;;;30.14;37.52;100897.22;6148709;23;20180;-63
2021/09/17 08:34:15;;;;;;;20.30;8.57;;;;;;;30.15;35.98;100900.84;6147098;23;20217;-64
2021/09/17 08:36:41;;;;;;;19.98;7.75;;;;;;;29.96;36.61;100863.94;6143033;23;20555;-64
2021/09/17 08:39:07;;;;;;;17.67;7.43;;;;;;;30.26;37.78;100901.31;6146926;23;20173;-64
2021/09/17 08:41:33;;;;;;;16.48;8.00;;;;;;;30.34;36.73;100898.47;6143977;23;20213;-64
2021/09/17 08:43:59;;;;;;;25.42;8.95;;;;;;;30.15;36.23;100847.28;6145978;23;20507;-64
2021/09/17 08:46:25;;;;;;;21.50;8.45;;;;;;;30.53;35.42;100885.44;6142674;23;20242;-64
2021/09/17 08:48:51;;;;;;;20.77;8.50;;;;;;;30.70;35.04;100896.41;6142279;23;20189;-65
2021/09/17 08:51:20;;;;;;;26.27;9.43;;;;;;;30.86;34.31;100898.00;6138580;23;20221;-64
2021/09/17 08:53:46;;;;;;;26.98;10.23;;;;;;;30.91;33.24;100894.19;6144282;23;20170;-65
2021/09/17 08:56:16;;;;;;;27.00;9.65;;;;;;;31.10;32.98;100883.94;6146249;23;20242;-67
2021/09/17 08:58:43;;;;;;;29.83;9.73;;;;;;;31.33;33.61;100881.88;6137152;23;20150;-66
2021/09/17 09:01:27;;;;;;;61.25;13.05;;;;;;;31.46;33.56;100876.00;6145921;23;20217;-67
2021/09/17 09:03:57;;;;;;;22.27;10.45;;;;;;;31.11;33.49;100836.78;6152925;23;20647;-67
2021/09/17 09:06:23;;;;;;;21.13;9.73;;;;;;;31.33;32.90;100861.09;6148124;23;20318;-67
2021/09/17 09:08:49;;;;;;;24.77;9.73;;;;;;;31.39;32.40;100835.88;6124005;23;20192;-67
2021/09/17 09:11:21;;;;;;;22.65;9.23;;;;;;;31.75;32.91;100871.63;6149242;23;20518;-63
2021/09/17 09:14:09;;;;;;;25.38;8.40;;;;;;;31.82;33.30;100847.94;6147473;23;20157;-63
2021/09/17 09:16:51;;;;;;;20.80;7.63;;;;;;;32.09;32.98;100865.47;6148941;23;20476;-64
2021/09/17 09:19:34;;;;;;;18.95;7.80;;;;;;;31.88;32.14;100819.81;6148140;23;20209;-64
2021/09/17 09:22:03;;;;;;;19.73;8.20;;;;;;;32.45;31.65;100858.09;6122132;23;20494;-63
2021/09/17 09:24:32;;;;;;;18.83;7.63;;;;;;;32.53;31.86;100852.31;6149512;23;20469;-63
2021/09/17 09:27:11;;;;;;;17.30;7.50;;;;;;;32.49;31.80;100857.69;6125100;23;20296;-62
2021/09/17 09:29:39;;;;;;;20.92;7.53;;;;;;;32.43;31.58;100829.25;6154135;23;20182;-62
2021/09/17 09:32:05;;;;;;;24.17;7.18;;;;;;;32.46;31.10;100847.41;6147835;23;20213;-65
2021/09/17 09:35:02;;;;;;;17.17;6.70;;;;;;;32.65;31.78;100827.63;6148616;23;20157;-63
2021/09/17 09:37:31;;;;;;;24.92;6.47;;;;;;;33.05;31.24;100854.19;6148968;23;20148;-64
2021/09/17 09:39:59;;;;;;;20.25;6.25;;;;;;;32.70;29.83;100772.09;6149966;23;20240;-65
2021/09/17 09:42:33;;;;;;;19.17;6.03;;;;;;;33.37;29.20;100837.69;6153244;23;20149;-64
2021/09/17 09:45:18;;;;;;;20.77;6.20;;;;;;;33.68;28.49;100836.06;6152917;23;20165;-63
2021/09/17 09:47:51;;;;;;;23.77;5.88;;;;;;;33.14;28.56;100727.19;6144167;23;20212;-64
2021/09/17 09:50:28;;;;;;;17.88;5.90;;;;;;;33.98;27.97;100826.44;6148734;23;20181;-63
2021/09/17 09:52:56;;;;;;;26.35;6.05;;;;;;;34.08;27.60;100821.53;6148334;23;20236;-63
2021/09/17 09:55:22;;;;;;;20.63;5.97;;;;;;;34.12;27.61;100811.13;6149463;23;20226;-62
